createdAt,value
2022-08-05T00:00:18.725Z,6.80
2022-08-05T00:00:46.203Z,8.02
2022-08-05T00:01:20.646Z,7.82
2022-08-05T00:01:50.570Z,8.68
2022-08-05T00:02:15.081Z,8.52
2022-08-05T00:02:38.410Z,10.00
2022-08-05T00:03:06.067Z,8.23
2022-08-05T00:03:28.088Z,12.70
2022-08-05T00:03:53.625Z,11.90
2022-08-05T00:04:20.182Z,10.40
2022-08-05T00:04:41.981Z,8.38
2022-08-05T00:05:05.908Z,8.55
2022-08-05T00:06:05.582Z,9.30
2022-08-05T00:06:27.876Z,7.65
2022-08-05T00:06:51.732Z,8.50
2022-08-05T00:07:32.102Z,9.15
2022-08-05T00:08:00.439Z,9.27
2022-08-05T00:08:34.823Z,8.35
2022-08-05T00:08:57.733Z,9.70
2022-08-05T00:09:20.437Z,10.55
2022-08-05T00:09:42.317Z,9.82
2022-08-05T00:10:06.122Z,9.35
2022-08-05T00:10:31.005Z,7.88
2022-08-05T00:10:52.874Z,9.00
2022-08-05T00:11:20.544Z,9.73
2022-08-05T00:11:55.786Z,12.05
2022-08-05T00:12:21.778Z,10.30
2022-08-05T00:12:55.687Z,10.20
2022-08-05T00:13:18.845Z,12.18
2022-08-05T00:13:43.264Z,10.57
2022-08-05T00:14:12.895Z,11.82
2022-08-05T00:14:39.463Z,9.73
2022-08-05T00:15:40.746Z,9.93
2022-08-05T00:15:56.050Z,10.65
2022-08-05T00:16:20.268Z,10.85
2022-08-05T00:16:58.544Z,10.80
2022-08-05T00:17:23.509Z,12.40
2022-08-05T00:17:47.952Z,10.38
2022-08-05T00:18:09.835Z,12.02
2022-08-05T00:18:45.873Z,12.32
2022-08-05T00:19:10.107Z,11.15
2022-08-05T00:19:40.659Z,11.70
2022-08-05T00:20:07.974Z,13.63
2022-08-05T00:20:30.732Z,10.65
2022-08-05T00:20:52.553Z,11.93
2022-08-05T00:21:16.268Z,11.80
2022-08-05T00:21:38.114Z,10.52
2022-08-05T00:22:05.187Z,9.63
2022-08-05T00:22:28.165Z,9.82
2022-08-05T00:22:57.362Z,9.18
2022-08-05T00:23:44.574Z,11.30
2022-08-05T00:24:11.015Z,12.43
2022-08-05T00:24:38.124Z,12.60
2022-08-05T00:25:08.308Z,12.25
2022-08-05T00:25:45.334Z,11.50
2022-08-05T00:26:09.077Z,11.75
2022-08-05T00:26:31.356Z,10.85
2022-08-05T00:26:53.768Z,13.15
2022-08-05T00:27:16.703Z,13.52
2022-08-05T00:27:38.817Z,11.32
2022-08-05T00:28:04.764Z,11.20
2022-08-05T00:28:29.689Z,8.85
2022-08-05T00:28:51.768Z,11.77
2022-08-05T00:29:13.522Z,13.68
2022-08-05T00:29:37.611Z,12.15
2022-08-05T00:30:00.470Z,16.35
2022-08-05T00:30:29.039Z,10.93
2022-08-05T00:30:52.054Z,11.77
2022-08-05T00:31:15.602Z,12.32
2022-08-05T00:31:53.237Z,9.60
2022-08-05T00:32:16.756Z,10.77
2022-08-05T00:32:38.622Z,11.00
2022-08-05T00:33:02.351Z,11.25
2022-08-05T00:34:54.361Z,10.68
2022-08-05T00:34:55.374Z,10.82
2022-08-05T00:35:04.826Z,10.23
2022-08-05T00:35:33.124Z,9.40
2022-08-05T00:36:16.273Z,10.55
2022-08-05T00:37:10.804Z,10.65
2022-08-05T00:37:20.349Z,10.60
2022-08-05T00:37:53.567Z,9.55
2022-08-05T00:38:15.974Z,9.05
2022-08-05T00:38:51.518Z,8.45
2022-08-05T00:39:14.205Z,7.72
2022-08-05T00:39:41.391Z,8.63
2022-08-05T00:40:06.627Z,8.43
2022-08-05T00:40:31.548Z,8.38
2022-08-05T00:40:59.267Z,8.07
2022-08-05T00:41:51.528Z,8.15
2022-08-05T00:42:31.703Z,9.77
2022-08-05T00:42:54.867Z,9.00
2022-08-05T00:43:17.421Z,8.65
2022-08-05T00:43:47.415Z,9.25
2022-08-05T00:44:11.851Z,9.80
2022-08-05T00:44:33.665Z,10.38
2022-08-05T00:44:55.658Z,9.85
2022-08-05T00:45:18.153Z,9.98
2022-08-05T00:45:59.832Z,8.00
2022-08-05T00:46:42.453Z,8.55
2022-08-05T00:47:04.135Z,9.35
2022-08-05T00:47:28.538Z,11.50
2022-08-05T00:48:12.505Z,8.40
2022-08-05T00:48:34.399Z,9.73
2022-08-05T00:49:13.977Z,10.20
2022-08-05T00:49:44.657Z,10.75
2022-08-05T00:50:13.602Z,8.70
2022-08-05T00:50:37.850Z,9.65
2022-08-05T00:50:59.695Z,10.23
2022-08-05T00:51:50.474Z,11.13
2022-08-05T00:52:12.910Z,9.05
2022-08-05T00:52:35.451Z,8.52
2022-08-05T00:53:01.062Z,9.13
2022-08-05T00:53:45.445Z,11.35
2022-08-05T00:54:06.007Z,8.40
2022-08-05T00:54:28.110Z,9.07
2022-08-05T00:54:53.739Z,9.43
2022-08-05T00:55:18.978Z,9.07
2022-08-05T00:55:42.815Z,8.27
2022-08-05T00:56:07.819Z,9.80
2022-08-05T00:56:32.283Z,9.13
2022-08-05T00:56:54.507Z,8.93
2022-08-05T00:57:16.511Z,9.48
2022-08-05T00:57:58.044Z,11.15
2022-08-05T00:58:20.883Z,8.95
2022-08-05T00:58:49.198Z,7.47
2022-08-05T00:59:10.936Z,8.70
2022-08-05T00:59:34.439Z,8.95
2022-08-05T01:00:06.903Z,9.90
2022-08-05T01:00:33.043Z,12.18
2022-08-05T01:00:56.283Z,8.30
2022-08-05T01:01:42.033Z,8.77
2022-08-05T01:02:00.456Z,10.43
2022-08-05T01:02:24.348Z,10.57
2022-08-05T01:02:46.273Z,10.15
2022-08-05T01:03:08.210Z,9.73
2022-08-05T01:03:31.089Z,10.43
2022-08-05T01:03:56.390Z,10.43
2022-08-05T01:04:20.112Z,10.07
2022-08-05T01:04:50.438Z,8.77
2022-08-05T01:05:12.929Z,9.93
2022-08-05T01:05:35.221Z,8.90
2022-08-05T01:05:57.182Z,8.25
2022-08-05T01:06:19.006Z,8.57
2022-08-05T01:06:46.739Z,10.50
2022-08-05T01:07:13.747Z,10.07
2022-08-05T01:08:29.844Z,9.80
2022-08-05T01:08:43.117Z,9.80
2022-08-05T01:09:06.255Z,8.00
2022-08-05T01:09:30.494Z,9.90
2022-08-05T01:09:55.751Z,9.93
2022-08-05T01:10:22.142Z,8.80
2022-08-05T01:10:54.031Z,8.88
2022-08-05T01:11:33.884Z,7.93
2022-08-05T01:12:18.059Z,8.90
2022-08-05T01:12:54.338Z,8.88
2022-08-05T01:14:04.424Z,10.23
2022-08-05T01:14:37.040Z,9.90
2022-08-05T01:15:35.164Z,8.77
2022-08-05T01:15:59.590Z,8.90
2022-08-05T01:16:57.560Z,7.95
2022-08-05T01:17:32.313Z,7.95
2022-08-05T01:18:09.634Z,9.95
2022-08-05T01:18:40.704Z,9.50
2022-08-05T01:20:01.181Z,8.57
2022-08-05T01:20:23.541Z,9.32
2022-08-05T01:21:07.390Z,9.65
2022-08-05T01:22:24.397Z,7.70
2022-08-05T01:23:15.027Z,7.20
2022-08-05T01:23:55.793Z,10.00
2022-08-05T01:24:47.305Z,11.30
2022-08-05T01:25:53.527Z,8.00
2022-08-05T01:26:43.745Z,8.43
2022-08-05T01:27:22.130Z,8.55
2022-08-05T01:27:56.047Z,7.75
2022-08-05T01:28:27.782Z,9.73
2022-08-05T01:28:53.631Z,9.93
2022-08-05T01:29:30.719Z,8.75
2022-08-05T01:29:58.500Z,10.40
2022-08-05T01:30:34.223Z,8.38
2022-08-05T01:31:03.058Z,8.80
2022-08-05T01:31:55.037Z,9.85
2022-08-05T01:32:21.799Z,9.52
2022-08-05T01:32:47.145Z,9.38
2022-08-05T01:33:12.988Z,10.07
2022-08-05T01:33:53.693Z,7.95
2022-08-05T01:34:26.923Z,8.85
2022-08-05T01:34:54.758Z,9.43
2022-08-05T01:35:51.259Z,9.55
2022-08-05T01:36:16.040Z,10.35
2022-08-05T01:36:47.119Z,10.82
2022-08-05T01:37:24.658Z,11.60
2022-08-05T01:37:51.591Z,12.15
2022-08-05T01:38:24.871Z,11.07
2022-08-05T01:38:50.887Z,9.52
2022-08-05T01:39:14.734Z,10.02
2022-08-05T01:39:58.768Z,10.50
2022-08-05T01:40:31.650Z,10.90
2022-08-05T01:40:55.525Z,9.90
2022-08-05T01:41:25.768Z,10.02
2022-08-05T01:41:49.058Z,9.85
2022-08-05T01:42:15.326Z,10.35
2022-08-05T01:42:39.564Z,11.60
2022-08-05T01:43:03.764Z,9.13
2022-08-05T01:43:28.056Z,9.20
2022-08-05T01:43:52.156Z,8.52
2022-08-05T01:44:15.328Z,10.02
2022-08-05T01:44:39.253Z,11.02
2022-08-05T01:45:03.416Z,10.30
2022-08-05T01:45:26.601Z,10.93
2022-08-05T01:46:07.324Z,11.55
2022-08-05T01:46:46.467Z,9.48
2022-08-05T01:47:10.623Z,8.65
2022-08-05T01:47:39.612Z,10.68
2022-08-05T01:48:10.217Z,10.18
2022-08-05T01:48:36.737Z,8.70
2022-08-05T01:49:00.767Z,8.70
2022-08-05T01:50:01.628Z,11.13
2022-08-05T01:50:36.376Z,9.60
2022-08-05T01:51:12.424Z,8.93
2022-08-05T01:51:36.425Z,9.15
2022-08-05T01:52:02.255Z,9.32
2022-08-05T01:52:42.830Z,9.10
2022-08-05T01:53:11.276Z,8.30
2022-08-05T01:53:57.199Z,9.07
2022-08-05T01:54:25.622Z,9.30
2022-08-05T01:54:52.890Z,8.32
2022-08-05T01:55:20.511Z,9.15
2022-08-05T01:55:45.475Z,8.82
2022-08-05T01:56:11.785Z,8.68
2022-08-05T01:58:10.130Z,8.43
2022-08-05T01:58:13.084Z,8.68
2022-08-05T01:58:17.780Z,8.98
2022-08-05T01:58:53.960Z,9.32
2022-08-05T01:59:20.696Z,9.50
2022-08-05T01:59:47.171Z,11.55
2022-08-05T02:00:12.108Z,10.02
2022-08-05T02:00:38.189Z,12.27
2022-08-05T02:01:01.517Z,11.05
2022-08-05T02:01:27.963Z,9.52
2022-08-05T02:01:57.718Z,9.10
2022-08-05T02:02:26.148Z,9.25
2022-08-05T02:02:57.653Z,8.23
2022-08-05T02:03:37.369Z,10.52
2022-08-05T02:04:00.542Z,8.90
2022-08-05T02:04:24.198Z,9.52
2022-08-05T02:04:50.021Z,11.65
2022-08-05T02:05:15.056Z,10.43
2022-08-05T02:05:40.294Z,8.88
2022-08-05T02:06:33.493Z,9.82
2022-08-05T02:06:49.134Z,8.40
2022-08-05T02:07:11.122Z,9.35
2022-08-05T02:07:56.260Z,9.32
2022-08-05T02:08:30.811Z,9.18
2022-08-05T02:08:57.783Z,10.85
2022-08-05T02:09:20.907Z,10.15
2022-08-05T02:09:43.535Z,10.43
2022-08-05T02:10:09.933Z,9.20
2022-08-05T02:10:50.447Z,9.13
2022-08-05T02:11:23.577Z,10.50
2022-08-05T02:12:01.646Z,8.65
2022-08-05T02:12:37.749Z,9.25
2022-08-05T02:13:13.058Z,9.48
2022-08-05T02:13:53.106Z,10.80
2022-08-05T02:14:28.846Z,9.02
2022-08-05T02:15:12.237Z,9.95
2022-08-05T02:16:00.316Z,9.35
2022-08-05T02:16:29.959Z,8.90
2022-08-05T02:16:57.182Z,10.35
2022-08-05T02:18:31.017Z,11.02
2022-08-05T02:18:31.767Z,9.40
2022-08-05T02:19:01.216Z,9.85
2022-08-05T02:19:34.251Z,8.43
2022-08-05T02:20:03.236Z,10.23
2022-08-05T02:20:30.511Z,11.15
2022-08-05T02:21:06.673Z,9.00
2022-08-05T02:21:49.209Z,10.32
2022-08-05T02:22:37.737Z,11.63
2022-08-05T02:23:09.014Z,8.98
2022-08-05T02:23:36.189Z,11.25
2022-08-05T02:24:08.102Z,10.85
2022-08-05T02:24:37.589Z,10.07
2022-08-05T02:25:32.983Z,10.00
2022-08-05T02:25:57.669Z,10.00
2022-08-05T02:26:30.688Z,9.98
2022-08-05T02:26:57.087Z,11.18
2022-08-05T02:27:30.233Z,11.10
2022-08-05T02:28:09.509Z,11.77
2022-08-05T02:28:38.438Z,12.13
2022-08-05T02:29:04.159Z,8.90
2022-08-05T02:29:58.864Z,10.20
2022-08-05T02:30:12.355Z,10.75
2022-08-05T02:30:56.809Z,13.70
2022-08-05T02:31:24.791Z,9.55
2022-08-05T02:31:47.410Z,8.52
2022-08-05T02:32:11.630Z,10.57
2022-08-05T02:32:43.504Z,10.25
2022-08-05T02:33:10.157Z,10.25
2022-08-05T02:33:38.867Z,10.93
2022-08-05T02:34:10.125Z,9.68
2022-08-05T02:34:35.049Z,10.85
2022-08-05T02:35:00.672Z,11.30
2022-08-05T02:35:37.780Z,13.38
2022-08-05T02:36:01.640Z,12.55
2022-08-05T02:36:27.449Z,12.45
2022-08-05T02:36:57.632Z,12.38
2022-08-05T02:37:20.455Z,13.35
2022-08-05T02:37:47.710Z,10.95
2022-08-05T02:38:19.506Z,9.32
2022-08-05T02:38:45.631Z,8.70
2022-08-05T02:39:18.536Z,9.30
2022-08-05T02:39:47.766Z,9.52
2022-08-05T02:40:20.925Z,11.63
2022-08-05T02:40:44.476Z,12.00
2022-08-05T02:41:17.262Z,10.48
2022-08-05T02:41:57.459Z,8.73
2022-08-05T02:42:27.332Z,11.00
2022-08-05T02:42:53.949Z,10.85
2022-08-05T02:43:18.136Z,10.45
2022-08-05T02:44:02.616Z,10.80
2022-08-05T02:44:25.751Z,10.48
2022-08-05T02:44:48.897Z,12.43
2022-08-05T02:45:14.812Z,11.80
2022-08-05T02:45:51.580Z,11.07
2022-08-05T02:46:17.584Z,9.05
2022-08-05T02:46:58.989Z,11.85
2022-08-05T02:47:23.574Z,9.98
2022-08-05T02:48:07.113Z,10.68
2022-08-05T02:48:30.155Z,9.98
2022-08-05T02:48:53.069Z,10.77
2022-08-05T02:49:16.913Z,11.55
2022-08-05T02:49:44.582Z,11.40
2022-08-05T02:50:08.739Z,9.15
2022-08-05T02:50:35.027Z,9.23
2022-08-05T02:51:01.013Z,9.80
2022-08-05T02:51:48.455Z,9.93
2022-08-05T02:52:11.548Z,10.20
2022-08-05T02:52:36.377Z,9.52
2022-08-05T02:52:58.382Z,10.38
2022-08-05T02:53:21.952Z,10.85
2022-08-05T02:53:44.601Z,9.43
2022-08-05T02:54:07.379Z,9.35
2022-08-05T02:54:35.845Z,9.65
2022-08-05T02:55:05.196Z,10.00
2022-08-05T02:55:53.695Z,10.68
2022-08-05T02:56:15.959Z,12.25
2022-08-05T02:56:43.507Z,9.75
2022-08-05T02:58:09.235Z,9.55
2022-08-05T02:58:10.986Z,10.27
2022-08-05T02:58:36.432Z,10.50
2022-08-05T02:59:06.432Z,9.75
2022-08-05T02:59:29.710Z,10.68
2022-08-05T03:00:12.990Z,9.20
2022-08-05T03:00:37.843Z,9.55
2022-08-05T03:01:02.681Z,10.90
2022-08-05T03:01:27.051Z,11.45
2022-08-05T03:01:51.950Z,9.98
2022-08-05T03:02:17.458Z,11.60
2022-08-05T03:02:42.798Z,11.80
2022-08-05T03:03:10.332Z,12.63
2022-08-05T03:03:33.720Z,11.10
2022-08-05T03:04:11.850Z,9.80
2022-08-05T03:04:37.924Z,11.65
2022-08-05T03:05:01.285Z,12.05
2022-08-05T03:06:53.762Z,11.15
2022-08-05T03:06:54.425Z,13.82
2022-08-05T03:06:55.387Z,11.77
2022-08-05T03:09:06.860Z,11.40
2022-08-05T04:34:42.683Z,9.70
2022-08-05T04:37:17.472Z,11.27
2022-08-05T04:38:02.513Z,8.77
2022-08-05T04:38:21.233Z,10.63
2022-08-05T04:38:43.698Z,9.20
2022-08-05T04:39:13.204Z,10.88
2022-08-05T04:39:35.727Z,10.45
2022-08-05T04:39:57.593Z,8.85
2022-08-05T04:40:19.793Z,10.85
2022-08-05T04:40:44.523Z,12.20
2022-08-05T04:41:12.751Z,10.43
2022-08-05T04:41:37.191Z,9.45
2022-08-05T04:42:01.817Z,8.93
2022-08-05T04:42:25.678Z,8.20
2022-08-05T04:42:47.567Z,7.85
2022-08-05T04:43:11.022Z,13.90
2022-08-05T04:43:40.687Z,11.55
2022-08-05T04:44:10.115Z,13.27
2022-08-05T04:44:31.924Z,9.25
2022-08-05T04:44:53.831Z,11.05
2022-08-05T04:45:23.080Z,10.38
2022-08-05T04:45:57.589Z,9.23
2022-08-05T04:46:27.774Z,10.80
2022-08-05T04:46:50.433Z,8.60
2022-08-05T04:47:18.592Z,9.82
2022-08-05T04:47:44.932Z,10.55
2022-08-05T04:48:18.460Z,11.77
2022-08-05T04:48:49.130Z,9.93
2022-08-05T04:49:14.793Z,12.52
2022-08-05T04:49:38.400Z,10.45
2022-08-05T04:50:37.345Z,9.25
2022-08-05T04:51:03.483Z,9.27
2022-08-05T04:51:33.450Z,9.80
2022-08-05T04:52:00.197Z,9.45
2022-08-05T04:52:22.514Z,11.57
2022-08-05T04:52:44.304Z,9.13
2022-08-05T04:53:07.361Z,9.70
2022-08-05T04:53:33.285Z,8.57
2022-08-05T04:53:55.904Z,8.80
2022-08-05T04:54:19.679Z,9.13
2022-08-05T04:54:41.500Z,10.82
2022-08-05T04:55:14.246Z,12.65
2022-08-05T04:56:15.306Z,8.60
2022-08-05T04:56:35.005Z,6.80
2022-08-05T04:57:01.806Z,13.10
2022-08-05T04:57:23.806Z,10.93
2022-08-05T05:10:56.673Z,11.05
2022-08-05T05:11:18.564Z,8.43
2022-08-05T05:11:55.541Z,9.30
2022-08-05T05:12:18.657Z,11.85
2022-08-05T05:12:41.281Z,12.38
2022-08-05T05:13:04.391Z,9.18
2022-08-05T05:13:26.453Z,8.55
2022-08-05T05:13:55.391Z,8.18
2022-08-05T05:14:17.559Z,8.88
2022-08-05T05:14:50.865Z,7.93
2022-08-05T05:15:13.246Z,10.20
2022-08-05T05:15:54.413Z,6.78
2022-08-05T05:16:20.857Z,7.90
2022-08-05T05:16:52.151Z,9.43
2022-08-05T05:17:23.536Z,10.27
2022-08-05T05:17:56.632Z,8.95
2022-08-05T05:28:54.231Z,9.83
2022-08-05T05:29:21.843Z,8.00
2022-08-05T05:30:04.359Z,8.80
2022-08-05T05:30:29.190Z,8.18
2022-08-05T05:30:57.461Z,8.25
2022-08-05T05:31:20.902Z,8.67
2022-08-05T05:31:43.197Z,7.40
2022-08-05T05:32:12.414Z,8.55
2022-08-05T05:32:40.790Z,6.97
2022-08-05T05:33:16.133Z,7.53
2022-08-05T05:33:58.842Z,10.73
2022-08-05T05:34:26.948Z,8.68
2022-08-05T05:34:53.963Z,10.37
2022-08-05T05:35:20.316Z,9.13
2022-08-05T05:35:48.922Z,9.07
2022-08-05T05:36:14.657Z,7.47
2022-08-05T05:36:37.334Z,7.40
2022-08-05T05:37:02.174Z,9.55
2022-08-05T05:37:59.073Z,8.85
2022-08-05T05:38:27.015Z,9.07
2022-08-05T05:38:49.828Z,8.80
2022-08-05T05:39:12.429Z,6.40
2022-08-05T05:39:37.325Z,7.22
2022-08-05T05:40:21.231Z,9.10
2022-08-05T05:40:51.236Z,7.22
2022-08-05T05:41:17.514Z,7.68
2022-08-05T05:41:41.776Z,6.57
2022-08-05T05:42:06.147Z,7.15
2022-08-05T05:42:31.513Z,7.35
2022-08-05T05:43:12.896Z,8.93
2022-08-05T05:43:57.450Z,7.90
2022-08-05T05:44:37.635Z,8.68
2022-08-05T05:45:00.361Z,8.30
2022-08-05T05:45:26.228Z,9.85
2022-08-05T05:45:48.564Z,7.38
2022-08-05T05:46:17.735Z,6.80
2022-08-05T05:46:43.039Z,9.52
2022-08-05T05:47:21.350Z,6.25
2022-08-05T05:48:06.991Z,7.07
2022-08-05T05:48:34.811Z,5.35
2022-08-05T05:48:57.716Z,8.27
2022-08-05T05:49:32.172Z,7.88
2022-08-05T05:50:01.725Z,6.47
2022-08-05T05:50:50.338Z,8.63
2022-08-05T05:51:28.278Z,5.72
2022-08-05T05:51:50.906Z,7.30
2022-08-05T05:52:15.401Z,7.57
2022-08-05T05:52:50.980Z,5.97
2022-08-05T05:53:21.578Z,8.02
2022-08-05T05:53:54.231Z,8.23
2022-08-05T05:54:21.940Z,8.52
2022-08-05T05:55:13.204Z,7.07
2022-08-05T05:55:51.395Z,6.38
2022-08-05T05:56:31.801Z,6.43
2022-08-05T05:56:56.996Z,6.28
2022-08-05T05:57:21.096Z,5.43
2022-08-05T05:57:52.760Z,6.38
2022-08-05T05:58:18.871Z,6.40
2022-08-05T05:58:41.175Z,6.57
2022-08-05T05:59:21.374Z,5.40
2022-08-05T05:59:44.840Z,7.13
2022-08-05T06:00:11.101Z,5.25
2022-08-05T06:00:35.812Z,4.47
2022-08-05T06:01:12.333Z,5.20
2022-08-05T06:01:38.887Z,5.78
2022-08-05T06:02:01.938Z,5.32
2022-08-05T06:02:32.615Z,4.60
2022-08-05T06:03:40.295Z,5.15
2022-08-05T06:04:00.684Z,4.07
2022-08-05T06:04:28.089Z,4.20
2022-08-05T06:04:52.368Z,4.10
2022-08-05T06:05:16.668Z,3.95
2022-08-05T06:05:39.835Z,5.57
2022-08-05T06:06:06.896Z,7.18
2022-08-05T06:06:37.547Z,5.20
2022-08-05T06:07:05.701Z,6.03
2022-08-05T06:07:41.976Z,5.63
2022-08-05T06:08:07.063Z,4.18
2022-08-05T06:08:33.522Z,6.18
2022-08-05T06:09:03.258Z,4.10
2022-08-05T06:09:59.985Z,6.70
2022-08-05T06:10:11.315Z,5.60
2022-08-05T06:10:37.596Z,5.65
2022-08-05T06:11:18.189Z,7.00
2022-08-05T06:11:41.992Z,6.35
2022-08-05T06:12:21.100Z,6.50
2022-08-05T06:12:43.220Z,5.38
2022-08-05T06:13:09.090Z,4.95
2022-08-05T06:13:40.671Z,4.57
2022-08-05T06:14:14.802Z,5.70
2022-08-05T06:14:36.992Z,6.00
2022-08-05T06:15:04.980Z,4.18
2022-08-05T06:16:29.543Z,4.00
2022-08-05T06:16:30.167Z,7.28
2022-08-05T06:16:53.993Z,4.65
2022-08-05T06:17:22.282Z,4.60
2022-08-05T06:17:52.676Z,6.25
2022-08-05T06:18:20.541Z,6.43
2022-08-05T06:18:53.668Z,6.03
2022-08-05T06:19:33.940Z,5.55
2022-08-05T06:20:00.472Z,4.53
2022-08-05T06:20:24.672Z,5.13
2022-08-05T06:20:54.248Z,4.22
2022-08-05T06:21:18.562Z,4.07
2022-08-05T06:21:49.720Z,4.90
2022-08-05T06:22:22.397Z,6.07
2022-08-05T06:22:46.219Z,5.97
2022-08-05T06:23:11.202Z,4.47
2022-08-05T06:23:43.933Z,4.68
2022-08-05T06:24:12.259Z,4.35
2022-08-05T06:24:35.738Z,5.47
2022-08-05T06:25:01.667Z,4.85
2022-08-05T06:26:12.495Z,5.38
2022-08-05T06:26:25.460Z,4.38
2022-08-05T06:26:53.748Z,4.15
2022-08-05T06:28:11.727Z,5.97
2022-08-05T06:28:12.351Z,5.50
2022-08-05T06:28:41.598Z,5.10
2022-08-05T06:29:06.457Z,4.47
2022-08-05T06:30:05.932Z,4.82
2022-08-05T06:30:33.668Z,5.82
2022-08-05T06:31:01.108Z,6.13
2022-08-05T06:31:37.408Z,5.20
2022-08-05T06:31:59.410Z,4.07
2022-08-05T06:32:25.839Z,4.63
2022-08-05T06:32:50.602Z,5.70
2022-08-05T06:33:12.881Z,4.93
2022-08-05T06:34:07.071Z,6.97
2022-08-05T06:34:28.800Z,3.67
2022-08-05T06:34:53.402Z,5.25
2022-08-05T06:36:03.437Z,3.40
2022-08-05T06:36:06.823Z,4.13
2022-08-05T06:36:37.387Z,6.35
2022-08-05T06:37:14.915Z,5.97
2022-08-05T06:37:55.889Z,4.82
2022-08-05T06:38:36.424Z,3.95
2022-08-05T06:39:01.723Z,5.57
2022-08-05T06:39:29.005Z,5.38
2022-08-05T06:39:58.748Z,5.53
2022-08-05T06:40:21.566Z,5.18
2022-08-05T06:40:53.316Z,3.92
2022-08-05T06:41:15.441Z,4.38
2022-08-05T06:41:40.520Z,7.53
2022-08-05T06:42:05.045Z,8.80
2022-08-05T06:42:27.072Z,8.65
2022-08-05T06:42:51.910Z,13.48
2022-08-05T06:43:59.154Z,6.65
2022-08-05T06:44:00.144Z,5.88
2022-08-05T06:44:22.685Z,5.72
2022-08-05T06:44:49.152Z,6.07
2022-08-05T06:45:20.636Z,5.70
2022-08-05T06:46:03.346Z,4.75
2022-08-05T06:46:29.908Z,7.85
2022-08-05T06:46:52.586Z,3.67
2022-08-05T06:47:30.114Z,4.93
2022-08-05T06:48:47.409Z,7.53
2022-08-05T06:48:56.788Z,11.25
2022-08-05T06:50:01.744Z,6.32
2022-08-05T06:50:05.072Z,8.18
2022-08-05T06:50:27.656Z,4.50
2022-08-05T06:50:51.162Z,4.20
2022-08-05T06:51:23.740Z,5.78
2022-08-05T06:51:50.737Z,3.50
2022-08-05T06:52:36.600Z,3.88
2022-08-05T06:52:58.596Z,3.95
2022-08-05T06:53:28.377Z,4.20
2022-08-05T06:53:53.553Z,4.47
2022-08-05T06:54:19.272Z,5.78
2022-08-05T06:54:52.467Z,4.57
2022-08-05T06:55:15.760Z,3.22
2022-08-05T06:55:37.649Z,4.40
2022-08-05T06:56:00.645Z,4.10
2022-08-05T06:56:24.937Z,6.97
2022-08-05T06:56:54.478Z,5.07
2022-08-05T06:58:02.662Z,5.18
2022-08-05T06:58:58.404Z,5.82
2022-08-05T06:59:26.175Z,5.97
2022-08-05T06:59:48.599Z,4.90
2022-08-05T07:00:24.949Z,10.00
2022-08-05T07:00:47.505Z,5.43
2022-08-05T07:01:09.322Z,5.97
2022-08-05T07:01:35.652Z,5.82
2022-08-05T07:01:58.587Z,6.30
2022-08-05T07:02:22.895Z,4.88
2022-08-05T07:02:46.134Z,7.20
2022-08-05T07:03:09.724Z,6.15
2022-08-05T07:03:33.335Z,4.97
2022-08-05T07:03:55.402Z,3.85
2022-08-05T07:04:19.243Z,7.15
2022-08-05T07:04:41.266Z,5.85
2022-08-05T07:05:04.225Z,4.45
2022-08-05T07:05:41.050Z,3.67
2022-08-05T07:06:06.045Z,3.92
2022-08-05T07:06:36.540Z,3.70
2022-08-05T07:06:58.320Z,3.75
2022-08-05T07:07:24.123Z,4.30
2022-08-05T07:07:57.395Z,3.67
2022-08-05T07:08:19.308Z,3.55
2022-08-05T07:08:42.738Z,3.97
2022-08-05T07:09:04.997Z,4.82
2022-08-05T07:09:26.773Z,4.85
2022-08-05T07:09:58.185Z,4.55
2022-08-05T07:10:20.406Z,3.92
2022-08-05T07:10:52.865Z,3.90
2022-08-05T07:11:16.201Z,4.10
2022-08-05T07:11:39.692Z,4.82
2022-08-05T07:12:02.132Z,5.03
2022-08-05T07:12:42.842Z,4.85
2022-08-05T07:13:56.815Z,4.00
2022-08-05T07:14:32.218Z,3.63
2022-08-05T07:15:34.225Z,4.85
2022-08-05T07:16:25.667Z,3.60
2022-08-05T07:17:59.113Z,3.95
2022-08-05T07:18:01.975Z,5.70
2022-08-05T07:18:30.127Z,4.88
2022-08-05T07:18:52.564Z,3.83
2022-08-05T07:19:36.392Z,3.83
2022-08-05T07:20:40.597Z,3.65
2022-08-05T07:21:04.813Z,3.63
2022-08-05T07:21:27.413Z,5.75
2022-08-05T07:22:09.334Z,3.88
2022-08-05T07:22:31.335Z,3.70
2022-08-05T07:22:53.182Z,4.38
2022-08-05T07:23:26.181Z,5.43
2022-08-05T07:23:49.769Z,3.70
2022-08-05T07:24:12.538Z,4.72
2022-08-05T07:24:35.182Z,5.10
2022-08-05T07:25:23.302Z,3.42
2022-08-05T07:25:55.053Z,4.78
2022-08-05T07:26:22.580Z,3.83
2022-08-05T07:26:46.143Z,3.72
2022-08-05T07:27:08.826Z,3.78
2022-08-05T07:27:57.161Z,3.70
2022-08-05T07:28:17.412Z,4.53
2022-08-05T07:28:39.363Z,5.10
2022-08-05T07:29:02.154Z,3.42
2022-08-05T07:30:22.283Z,3.70
2022-08-05T07:30:25.408Z,5.05
2022-08-05T07:30:52.798Z,3.95
2022-08-05T07:31:17.553Z,3.47
2022-08-05T07:31:40.953Z,3.85
2022-08-05T07:32:17.746Z,5.00
2022-08-05T07:32:53.455Z,4.28
2022-08-05T07:33:16.063Z,6.97
2022-08-05T07:33:39.141Z,4.20
2022-08-05T07:34:04.271Z,4.68
2022-08-05T07:34:30.316Z,4.47
2022-08-05T07:34:57.918Z,3.78
2022-08-05T07:36:02.438Z,3.40
2022-08-05T07:36:20.609Z,4.78
2022-08-05T07:36:43.492Z,4.05
2022-08-05T07:37:05.386Z,4.93
2022-08-05T07:37:35.998Z,5.05
2022-08-05T07:37:59.443Z,7.30
2022-08-05T07:38:31.960Z,4.40
2022-08-05T07:38:56.523Z,3.78
2022-08-05T07:39:37.007Z,4.40
2022-08-05T07:40:26.498Z,4.45
2022-08-05T07:40:44.514Z,3.45
2022-08-05T07:41:35.245Z,3.90
2022-08-05T07:42:14.242Z,4.43
2022-08-05T07:42:34.265Z,3.70
2022-08-05T07:42:58.530Z,4.53
2022-08-05T07:43:21.271Z,3.80
2022-08-05T07:43:44.287Z,4.00
2022-08-05T07:44:18.499Z,3.53
2022-08-05T07:44:40.701Z,4.10
2022-08-05T07:45:03.407Z,4.43
2022-08-05T07:45:57.406Z,3.95
2022-08-05T07:46:25.174Z,4.72
2022-08-05T07:46:49.652Z,4.85
2022-08-05T07:47:21.173Z,3.70
2022-08-05T07:47:47.560Z,4.03
2022-08-05T07:48:09.671Z,3.85
2022-08-05T07:49:01.422Z,3.80
2022-08-05T07:49:13.867Z,5.15
2022-08-05T07:49:43.504Z,4.65
2022-08-05T07:50:16.869Z,8.10
2022-08-05T07:50:38.684Z,8.52
2022-08-05T07:51:00.961Z,6.45
2022-08-05T07:51:37.421Z,7.85
2022-08-05T07:52:03.327Z,4.22
2022-08-05T07:52:26.370Z,4.88
2022-08-05T07:52:48.239Z,5.43
2022-08-05T07:53:10.517Z,5.30
2022-08-05T07:53:49.914Z,3.78
2022-08-05T07:54:12.777Z,4.50
2022-08-05T07:54:41.286Z,5.38
2022-08-05T07:55:15.783Z,3.80
2022-08-05T07:56:06.577Z,4.88
2022-08-05T07:56:59.970Z,6.38
2022-08-05T07:57:41.466Z,4.18
2022-08-05T07:58:03.184Z,5.63
2022-08-05T07:58:58.551Z,3.80
2022-08-05T07:59:08.463Z,3.85
2022-08-05T07:59:39.103Z,4.78
2022-08-05T08:00:04.742Z,5.78
2022-08-05T08:00:33.421Z,5.53
2022-08-05T08:00:55.298Z,4.27
2022-08-05T08:01:17.946Z,4.20
2022-08-05T08:01:52.247Z,3.80
2022-08-05T08:02:26.529Z,4.07
2022-08-05T08:03:15.389Z,3.83
2022-08-05T08:03:44.673Z,4.95
2022-08-05T08:04:06.769Z,5.38
2022-08-05T08:04:37.716Z,4.10
2022-08-05T08:05:01.077Z,3.47
2022-08-05T08:05:22.911Z,4.00
2022-08-05T08:05:51.135Z,3.80
2022-08-05T08:06:12.989Z,3.97
2022-08-05T08:06:34.804Z,4.40
2022-08-05T08:06:56.551Z,3.92
2022-08-05T08:07:22.101Z,4.50
2022-08-05T08:07:59.488Z,3.90
2022-08-05T08:08:22.319Z,7.25
2022-08-05T08:08:44.426Z,5.85
2022-08-05T08:09:07.375Z,4.72
2022-08-05T08:09:31.683Z,5.28
2022-08-05T08:09:54.925Z,3.92
2022-08-05T08:10:22.591Z,5.60
2022-08-05T08:10:44.557Z,5.80
2022-08-05T08:11:11.006Z,4.20
2022-08-05T08:11:48.235Z,4.25
2022-08-05T08:12:37.284Z,3.93
2022-08-05T08:13:01.688Z,3.90
2022-08-05T08:13:28.976Z,4.50
2022-08-05T08:14:00.627Z,4.60
2022-08-05T08:14:23.015Z,4.13
2022-08-05T08:14:46.893Z,5.15
2022-08-05T08:15:15.572Z,4.47
2022-08-05T08:16:34.874Z,3.83
2022-08-05T08:16:35.401Z,4.03
2022-08-05T08:17:01.512Z,4.35
2022-08-05T08:17:23.704Z,4.65
2022-08-05T08:17:52.398Z,5.78
2022-08-05T08:18:14.969Z,4.65
2022-08-05T08:18:42.919Z,4.15
2022-08-05T08:20:10.743Z,6.55
2022-08-05T08:20:22.115Z,4.65
2022-08-05T08:21:00.631Z,5.20
2022-08-05T08:21:25.085Z,3.97
2022-08-05T08:21:47.125Z,4.60
2022-08-05T08:22:10.396Z,5.55
2022-08-05T08:22:37.822Z,3.80
2022-08-05T08:23:03.128Z,4.20
2022-08-05T08:24:03.403Z,4.45
2022-08-05T08:24:13.797Z,5.20
2022-08-05T08:24:51.769Z,5.47
2022-08-05T08:25:16.463Z,4.07
2022-08-05T08:26:00.787Z,4.15
2022-08-05T08:26:26.998Z,4.22
2022-08-05T08:26:52.316Z,4.43
2022-08-05T08:27:16.618Z,4.47
2022-08-05T08:27:44.738Z,5.05
2022-08-05T08:28:11.370Z,4.00
2022-08-05T08:28:59.495Z,4.13
2022-08-05T08:30:04.134Z,4.65
2022-08-05T08:30:30.111Z,4.40
2022-08-05T08:30:47.958Z,4.07
2022-08-05T08:31:15.052Z,4.72
2022-08-05T08:31:39.241Z,3.92
2022-08-05T08:32:03.803Z,3.88
2022-08-05T08:32:28.221Z,4.50